sensor_id;sensor_type;location;lat;lon;timestamp;temperature;humidity
11762;DHT22;5938;47.098;15.474;2023-04-15T00:02:56;5.20;99.90
11762;DHT22;5938;47.098;15.474;2023-04-15T00:07:01;5.20;99.90
11762;DHT22;5938;47.098;15.474;2023-04-15T00:11:06;5.20;99.90
11762;DHT22;5938;47.098;15.474;2023-04-15T00:15:10;5.30;99.90
11762;DHT22;5938;47.098;15.474;2023-04-15T00:19:13;5.20;99.90
11762;DHT22;5938;47.098;15.474;2023-04-15T00:23:16;5.20;99.90
11762;DHT22;5938;47.098;15.474;2023-04-15T00:27:21;5.30;99.90
11762;DHT22;5938;47.098;15.474;2023-04-15T00:31:24;5.20;99.90
11762;DHT22;5938;47.098;15.474;2023-04-15T00:35:28;5.20;99.90
11762;DHT22;5938;47.098;15.474;2023-04-15T00:39:33;5.20;99.90
11762;DHT22;5938;47.098;15.474;2023-04-15T00:43:38;5.10;99.90
11762;DHT22;5938;47.098;15.474;2023-04-15T00:47:43;5.10;99.90
11762;DHT22;5938;47.098;15.474;2023-04-15T00:51:46;5.20;99.90
11762;DHT22;5938;47.098;15.474;2023-04-15T00:55:49;5.10;99.90
11762;DHT22;5938;47.098;15.474;2023-04-15T00:59:55;5.10;99.90
11762;DHT22;5938;47.098;15.474;2023-04-15T01:03:58;5.10;99.90
11762;DHT22;5938;47.098;15.474;2023-04-15T01:08:02;5.10;99.90
11762;DHT22;5938;47.098;15.474;2023-04-15T01:12:06;5.10;99.90
11762;DHT22;5938;47.098;15.474;2023-04-15T01:16:11;5.10;99.90
11762;DHT22;5938;47.098;15.474;2023-04-15T01:20:15;5.10;99.90
11762;DHT22;5938;47.098;15.474;2023-04-15T01:24:18;5.10;99.90
11762;DHT22;5938;47.098;15.474;2023-04-15T01:28:29;5.10;99.90
11762;DHT22;5938;47.098;15.474;2023-04-15T01:32:33;5.10;99.90
11762;DHT22;5938;47.098;15.474;2023-04-15T01:36:36;5.10;99.90
11762;DHT22;5938;47.098;15.474;2023-04-15T01:40:39;5.00;99.90
11762;DHT22;5938;47.098;15.474;2023-04-15T01:44:44;5.00;99.90
11762;DHT22;5938;47.098;15.474;2023-04-15T01:48:48;5.00;99.90
11762;DHT22;5938;47.098;15.474;2023-04-15T01:52:51;5.00;99.90
11762;DHT22;5938;47.098;15.474;2023-04-15T01:56:55;5.00;99.90
11762;DHT22;5938;47.098;15.474;2023-04-15T02:01:00;5.00;99.90
11762;DHT22;5938;47.098;15.474;2023-04-15T02:05:04;5.00;99.90
11762;DHT22;5938;47.098;15.474;2023-04-15T02:09:08;5.00;99.90
11762;DHT22;5938;47.098;15.474;2023-04-15T02:13:11;5.00;99.90
11762;DHT22;5938;47.098;15.474;2023-04-15T02:17:16;5.10;99.90
11762;DHT22;5938;47.098;15.474;2023-04-15T02:21:21;5.00;99.90
11762;DHT22;5938;47.098;15.474;2023-04-15T02:25:24;5.00;99.90
11762;DHT22;5938;47.098;15.474;2023-04-15T02:29:27;5.00;99.90
11762;DHT22;5938;47.098;15.474;2023-04-15T02:33:32;5.10;99.90
11762;DHT22;5938;47.098;15.474;2023-04-15T02:37:37;5.10;99.90
11762;DHT22;5938;47.098;15.474;2023-04-15T02:41:44;5.00;99.90
11762;DHT22;5938;47.098;15.474;2023-04-15T02:45:52;5.00;99.90
11762;DHT22;5938;47.098;15.474;2023-04-15T02:49:57;5.10;99.90
11762;DHT22;5938;47.098;15.474;2023-04-15T02:54:02;5.10;99.90
11762;DHT22;5938;47.098;15.474;2023-04-15T02:58:06;5.00;99.90
11762;DHT22;5938;47.098;15.474;2023-04-15T03:02:09;5.10;99.90
11762;DHT22;5938;47.098;15.474;2023-04-15T03:06:14;5.00;99.90
11762;DHT22;5938;47.098;15.474;2023-04-15T03:10:17;5.00;99.90
11762;DHT22;5938;47.098;15.474;2023-04-15T03:14:20;5.00;99.90
11762;DHT22;5938;47.098;15.474;2023-04-15T03:18:24;5.10;99.90
11762;DHT22;5938;47.098;15.474;2023-04-15T03:22:28;5.10;99.90
11762;DHT22;5938;47.098;15.474;2023-04-15T03:26:32;5.00;99.90
11762;DHT22;5938;47.098;15.474;2023-04-15T03:30:35;5.00;99.90
11762;DHT22;5938;47.098;15.474;2023-04-15T03:34:38;5.00;99.90
11762;DHT22;5938;47.098;15.474;2023-04-15T03:38:43;5.10;99.90
11762;DHT22;5938;47.098;15.474;2023-04-15T03:42:46;5.10;99.90
11762;DHT22;5938;47.098;15.474;2023-04-15T03:46:49;5.10;99.90
11762;DHT22;5938;47.098;15.474;2023-04-15T03:50:53;5.10;99.90
11762;DHT22;5938;47.098;15.474;2023-04-15T03:54:57;5.10;99.90
11762;DHT22;5938;47.098;15.474;2023-04-15T03:59:01;5.10;99.90
11762;DHT22;5938;47.098;15.474;2023-04-15T04:03:04;5.10;99.90
11762;DHT22;5938;47.098;15.474;2023-04-15T04:07:08;5.20;99.90
11762;DHT22;5938;47.098;15.474;2023-04-15T04:11:17;5.10;99.90
11762;DHT22;5938;47.098;15.474;2023-04-15T04:15:21;5.10;99.90
11762;DHT22;5938;47.098;15.474;2023-04-15T04:19:25;5.10;99.90
11762;DHT22;5938;47.098;15.474;2023-04-15T04:23:28;5.10;99.90
11762;DHT22;5938;47.098;15.474;2023-04-15T04:27:33;5.20;99.90
11762;DHT22;5938;47.098;15.474;2023-04-15T04:31:36;5.20;99.90
11762;DHT22;5938;47.098;15.474;2023-04-15T04:35:40;5.20;99.90
11762;DHT22;5938;47.098;15.474;2023-04-15T04:39:44;5.20;99.90
11762;DHT22;5938;47.098;15.474;2023-04-15T04:43:50;5.30;99.90
11762;DHT22;5938;47.098;15.474;2023-04-15T04:47:53;5.30;99.90
11762;DHT22;5938;47.098;15.474;2023-04-15T04:51:56;5.30;99.90
11762;DHT22;5938;47.098;15.474;2023-04-15T04:56:00;5.40;99.90
11762;DHT22;5938;47.098;15.474;2023-04-15T05:00:09;5.40;99.90
11762;DHT22;5938;47.098;15.474;2023-04-15T05:04:13;5.40;99.90
11762;DHT22;5938;47.098;15.474;2023-04-15T05:08:17;5.40;99.90
11762;DHT22;5938;47.098;15.474;2023-04-15T05:12:20;5.50;99.90
11762;DHT22;5938;47.098;15.474;2023-04-15T05:16:25;5.50;99.90
11762;DHT22;5938;47.098;15.474;2023-04-15T05:20:29;5.60;99.90
11762;DHT22;5938;47.098;15.474;2023-04-15T05:24:32;5.60;99.90
11762;DHT22;5938;47.098;15.474;2023-04-15T05:28:35;5.60;99.90
11762;DHT22;5938;47.098;15.474;2023-04-15T05:32:40;5.60;99.90
11762;DHT22;5938;47.098;15.474;2023-04-15T05:36:43;5.60;99.90
11762;DHT22;5938;47.098;15.474;2023-04-15T05:40:46;5.60;99.90
11762;DHT22;5938;47.098;15.474;2023-04-15T05:44:50;5.50;99.90
11762;DHT22;5938;47.098;15.474;2023-04-15T05:48:54;5.60;99.90
11762;DHT22;5938;47.098;15.474;2023-04-15T05:52:58;5.50;99.90
11762;DHT22;5938;47.098;15.474;2023-04-15T05:57:01;5.70;99.90
11762;DHT22;5938;47.098;15.474;2023-04-15T06:01:04;5.70;99.90
11762;DHT22;5938;47.098;15.474;2023-04-15T06:05:09;5.80;99.90
11762;DHT22;5938;47.098;15.474;2023-04-15T06:09:13;5.90;99.90
11762;DHT22;5938;47.098;15.474;2023-04-15T06:13:16;5.90;99.90
11762;DHT22;5938;47.098;15.474;2023-04-15T06:17:19;6.00;99.90
11762;DHT22;5938;47.098;15.474;2023-04-15T06:21:24;6.10;99.90
11762;DHT22;5938;47.098;15.474;2023-04-15T06:25:27;6.30;99.90
11762;DHT22;5938;47.098;15.474;2023-04-15T06:29:31;6.40;99.90
11762;DHT22;5938;47.098;15.474;2023-04-15T06:33:34;6.40;99.90
11762;DHT22;5938;47.098;15.474;2023-04-15T06:37:39;6.50;99.90
11762;DHT22;5938;47.098;15.474;2023-04-15T06:41:42;6.20;99.90
11762;DHT22;5938;47.098;15.474;2023-04-15T06:45:45;6.10;99.90
11762;DHT22;5938;47.098;15.474;2023-04-15T06:49:49;6.20;99.90
11762;DHT22;5938;47.098;15.474;2023-04-15T06:53:54;6.20;99.90
11762;DHT22;5938;47.098;15.474;2023-04-15T06:58:00;6.30;99.90
11762;DHT22;5938;47.098;15.474;2023-04-15T07:02:03;6.30;99.90
11762;DHT22;5938;47.098;15.474;2023-04-15T07:06:07;6.40;99.90
11762;DHT22;5938;47.098;15.474;2023-04-15T07:10:13;6.30;99.90
11762;DHT22;5938;47.098;15.474;2023-04-15T07:14:17;6.30;99.90
11762;DHT22;5938;47.098;15.474;2023-04-15T07:18:20;6.40;99.90
11762;DHT22;5938;47.098;15.474;2023-04-15T07:22:24;6.30;99.90
11762;DHT22;5938;47.098;15.474;2023-04-15T07:26:29;6.50;99.90
11762;DHT22;5938;47.098;15.474;2023-04-15T07:30:33;6.40;99.90
11762;DHT22;5938;47.098;15.474;2023-04-15T07:34:39;6.40;99.90
11762;DHT22;5938;47.098;15.474;2023-04-15T07:38:49;6.50;99.90
11762;DHT22;5938;47.098;15.474;2023-04-15T07:42:56;6.50;99.90
11762;DHT22;5938;47.098;15.474;2023-04-15T07:47:00;6.50;99.90
11762;DHT22;5938;47.098;15.474;2023-04-15T07:51:05;6.60;99.90
11762;DHT22;5938;47.098;15.474;2023-04-15T07:55:09;6.80;99.90
11762;DHT22;5938;47.098;15.474;2023-04-15T07:59:15;6.90;99.90
11762;DHT22;5938;47.098;15.474;2023-04-15T08:03:20;6.90;99.90
11762;DHT22;5938;47.098;15.474;2023-04-15T08:07:25;7.20;99.90
11762;DHT22;5938;47.098;15.474;2023-04-15T08:11:29;7.70;99.90
11762;DHT22;5938;47.098;15.474;2023-04-15T08:15:34;8.00;99.90
11762;DHT22;5938;47.098;15.474;2023-04-15T08:19:39;8.20;99.90
11762;DHT22;5938;47.098;15.474;2023-04-15T08:23:43;8.10;99.90
11762;DHT22;5938;47.098;15.474;2023-04-15T08:27:47;8.00;99.90
11762;DHT22;5938;47.098;15.474;2023-04-15T08:31:52;8.10;99.90
11762;DHT22;5938;47.098;15.474;2023-04-15T08:35:57;8.20;99.90
11762;DHT22;5938;47.098;15.474;2023-04-15T08:40:00;8.60;99.90
11762;DHT22;5938;47.098;15.474;2023-04-15T08:44:04;8.70;99.90
11762;DHT22;5938;47.098;15.474;2023-04-15T08:48:14;8.60;99.90
11762;DHT22;5938;47.098;15.474;2023-04-15T08:52:23;8.60;99.90
11762;DHT22;5938;47.098;15.474;2023-04-15T08:56:33;9.00;99.90
11762;DHT22;5938;47.098;15.474;2023-04-15T09:00:41;9.00;99.90
11762;DHT22;5938;47.098;15.474;2023-04-15T09:04:48;9.30;99.90
11762;DHT22;5938;47.098;15.474;2023-04-15T09:08:53;9.30;99.90
11762;DHT22;5938;47.098;15.474;2023-04-15T09:12:58;9.30;99.90
11762;DHT22;5938;47.098;15.474;2023-04-15T09:17:04;9.30;99.90
11762;DHT22;5938;47.098;15.474;2023-04-15T09:21:10;9.50;99.90
11762;DHT22;5938;47.098;15.474;2023-04-15T09:25:28;9.80;99.90
11762;DHT22;5938;47.098;15.474;2023-04-15T09:29:35;10.10;99.90
11762;DHT22;5938;47.098;15.474;2023-04-15T09:33:54;10.40;99.90
11762;DHT22;5938;47.098;15.474;2023-04-15T09:38:04;10.60;99.90
11762;DHT22;5938;47.098;15.474;2023-04-15T09:42:09;10.70;99.90
11762;DHT22;5938;47.098;15.474;2023-04-15T09:46:13;10.80;99.90
11762;DHT22;5938;47.098;15.474;2023-04-15T09:50:17;10.80;99.90
11762;DHT22;5938;47.098;15.474;2023-04-15T09:54:22;11.10;99.90
11762;DHT22;5938;47.098;15.474;2023-04-15T09:58:27;11.20;99.90
11762;DHT22;5938;47.098;15.474;2023-04-15T10:02:31;11.40;99.90
11762;DHT22;5938;47.098;15.474;2023-04-15T10:06:36;11.20;99.90
11762;DHT22;5938;47.098;15.474;2023-04-15T10:10:41;11.00;99.90
11762;DHT22;5938;47.098;15.474;2023-04-15T10:14:49;10.90;99.90
11762;DHT22;5938;47.098;15.474;2023-04-15T10:18:56;11.10;99.90
11762;DHT22;5938;47.098;15.474;2023-04-15T10:23:08;11.40;99.90
11762;DHT22;5938;47.098;15.474;2023-04-15T10:27:16;11.50;99.90
11762;DHT22;5938;47.098;15.474;2023-04-15T10:31:20;11.30;99.90
11762;DHT22;5938;47.098;15.474;2023-04-15T10:35:25;11.00;99.90
11762;DHT22;5938;47.098;15.474;2023-04-15T10:39:40;11.00;99.90
11762;DHT22;5938;47.098;15.474;2023-04-15T10:43:48;11.10;99.90
11762;DHT22;5938;47.098;15.474;2023-04-15T10:47:55;11.30;99.90
11762;DHT22;5938;47.098;15.474;2023-04-15T10:52:00;11.00;99.90
11762;DHT22;5938;47.098;15.474;2023-04-15T10:56:05;10.90;99.90
11762;DHT22;5938;47.098;15.474;2023-04-15T11:00:12;10.80;99.90
11762;DHT22;5938;47.098;15.474;2023-04-15T11:04:50;10.90;99.90
11762;DHT22;5938;47.098;15.474;2023-04-15T11:08:55;10.90;99.90
11762;DHT22;5938;47.098;15.474;2023-04-15T11:13:02;10.40;99.90
11762;DHT22;5938;47.098;15.474;2023-04-15T11:17:07;10.30;99.90
11762;DHT22;5938;47.098;15.474;2023-04-15T11:21:11;10.40;99.90
11762;DHT22;5938;47.098;15.474;2023-04-15T11:25:22;10.70;99.90
11762;DHT22;5938;47.098;15.474;2023-04-15T11:29:28;11.20;99.90
11762;DHT22;5938;47.098;15.474;2023-04-15T11:33:34;11.60;99.90
11762;DHT22;5938;47.098;15.474;2023-04-15T11:37:38;11.80;99.90
11762;DHT22;5938;47.098;15.474;2023-04-15T11:41:42;11.60;99.90
11762;DHT22;5938;47.098;15.474;2023-04-15T11:45:51;11.50;99.90
11762;DHT22;5938;47.098;15.474;2023-04-15T11:49:56;11.60;99.90
11762;DHT22;5938;47.098;15.474;2023-04-15T11:54:03;11.50;99.90
11762;DHT22;5938;47.098;15.474;2023-04-15T11:58:09;11.40;99.90
11762;DHT22;5938;47.098;15.474;2023-04-15T12:02:13;11.70;99.90
11762;DHT22;5938;47.098;15.474;2023-04-15T12:06:20;11.60;99.90
11762;DHT22;5938;47.098;15.474;2023-04-15T12:10:24;11.30;99.90
11762;DHT22;5938;47.098;15.474;2023-04-15T12:14:29;10.90;99.90
11762;DHT22;5938;47.098;15.474;2023-04-15T12:18:33;11.00;99.90
11762;DHT22;5938;47.098;15.474;2023-04-15T12:22:41;10.90;99.90
11762;DHT22;5938;47.098;15.474;2023-04-15T12:26:47;11.00;99.90
11762;DHT22;5938;47.098;15.474;2023-04-15T12:30:51;11.60;99.90
11762;DHT22;5938;47.098;15.474;2023-04-15T12:34:55;11.60;99.90
11762;DHT22;5938;47.098;15.474;2023-04-15T12:39:01;12.20;99.90
11762;DHT22;5938;47.098;15.474;2023-04-15T12:43:05;12.30;99.90
11762;DHT22;5938;47.098;15.474;2023-04-15T12:47:10;12.20;99.80
11762;DHT22;5938;47.098;15.474;2023-04-15T12:51:14;12.20;99.60
11762;DHT22;5938;47.098;15.474;2023-04-15T12:55:20;12.20;99.80
11762;DHT22;5938;47.098;15.474;2023-04-15T12:59:24;11.80;99.60
11762;DHT22;5938;47.098;15.474;2023-04-15T13:03:28;11.60;99.90
11762;DHT22;5938;47.098;15.474;2023-04-15T13:07:31;11.60;99.90
11762;DHT22;5938;47.098;15.474;2023-04-15T13:11:37;11.50;99.90
11762;DHT22;5938;47.098;15.474;2023-04-15T13:15:40;11.40;99.90
11762;DHT22;5938;47.098;15.474;2023-04-15T13:19:46;11.50;99.90
11762;DHT22;5938;47.098;15.474;2023-04-15T13:23:51;11.40;99.90
11762;DHT22;5938;47.098;15.474;2023-04-15T13:27:56;10.80;99.90
11762;DHT22;5938;47.098;15.474;2023-04-15T13:31:59;10.30;99.90
11762;DHT22;5938;47.098;15.474;2023-04-15T13:36:03;9.90;99.90
11762;DHT22;5938;47.098;15.474;2023-04-15T13:40:08;9.30;99.90
11762;DHT22;5938;47.098;15.474;2023-04-15T13:44:13;9.20;99.90
11762;DHT22;5938;47.098;15.474;2023-04-15T13:48:17;8.80;99.90
11762;DHT22;5938;47.098;15.474;2023-04-15T13:52:20;8.50;99.90
11762;DHT22;5938;47.098;15.474;2023-04-15T13:56:25;8.50;99.90
11762;DHT22;5938;47.098;15.474;2023-04-15T14:00:30;8.50;99.90
11762;DHT22;5938;47.098;15.474;2023-04-15T14:04:33;8.30;99.90
11762;DHT22;5938;47.098;15.474;2023-04-15T14:08:37;8.30;99.90
11762;DHT22;5938;47.098;15.474;2023-04-15T14:12:40;8.30;99.90
11762;DHT22;5938;47.098;15.474;2023-04-15T14:16:45;8.50;99.90
11762;DHT22;5938;47.098;15.474;2023-04-15T14:20:48;8.70;99.90
11762;DHT22;5938;47.098;15.474;2023-04-15T14:24:52;9.10;99.90
11762;DHT22;5938;47.098;15.474;2023-04-15T14:28:56;9.30;99.90
11762;DHT22;5938;47.098;15.474;2023-04-15T14:33:01;9.50;99.90
11762;DHT22;5938;47.098;15.474;2023-04-15T14:37:05;9.60;99.90
11762;DHT22;5938;47.098;15.474;2023-04-15T14:41:09;9.70;99.90
11762;DHT22;5938;47.098;15.474;2023-04-15T14:45:13;9.60;99.90
11762;DHT22;5938;47.098;15.474;2023-04-15T14:49:17;9.60;99.90
11762;DHT22;5938;47.098;15.474;2023-04-15T14:53:21;9.60;99.90
11762;DHT22;5938;47.098;15.474;2023-04-15T14:57:25;9.60;99.90
11762;DHT22;5938;47.098;15.474;2023-04-15T15:01:28;9.70;99.90
11762;DHT22;5938;47.098;15.474;2023-04-15T15:05:33;9.70;99.90
11762;DHT22;5938;47.098;15.474;2023-04-15T15:09:37;9.50;99.90
11762;DHT22;5938;47.098;15.474;2023-04-15T15:13:40;9.60;99.90
11762;DHT22;5938;47.098;15.474;2023-04-15T15:17:44;9.50;99.90
11762;DHT22;5938;47.098;15.474;2023-04-15T15:21:49;9.60;99.90
11762;DHT22;5938;47.098;15.474;2023-04-15T15:25:52;9.70;99.90
11762;DHT22;5938;47.098;15.474;2023-04-15T15:29:57;9.60;99.90
11762;DHT22;5938;47.098;15.474;2023-04-15T15:34:02;9.40;99.90
11762;DHT22;5938;47.098;15.474;2023-04-15T15:38:08;9.30;99.90
11762;DHT22;5938;47.098;15.474;2023-04-15T15:42:13;9.30;99.90
11762;DHT22;5938;47.098;15.474;2023-04-15T15:46:16;9.30;99.90
11762;DHT22;5938;47.098;15.474;2023-04-15T15:50:20;9.20;99.90
11762;DHT22;5938;47.098;15.474;2023-04-15T15:54:25;9.20;99.90
11762;DHT22;5938;47.098;15.474;2023-04-15T15:58:29;9.10;99.90
11762;DHT22;5938;47.098;15.474;2023-04-15T16:02:32;9.20;99.90
11762;DHT22;5938;47.098;15.474;2023-04-15T16:06:56;9.10;99.90
11762;DHT22;5938;47.098;15.474;2023-04-15T16:11:01;9.10;99.90
11762;DHT22;5938;47.098;15.474;2023-04-15T16:15:06;9.00;99.90
11762;DHT22;5938;47.098;15.474;2023-04-15T16:19:10;9.00;99.90
11762;DHT22;5938;47.098;15.474;2023-04-15T16:23:15;8.90;99.90
11762;DHT22;5938;47.098;15.474;2023-04-15T16:27:20;8.90;99.90
11762;DHT22;5938;47.098;15.474;2023-04-15T16:31:24;8.90;99.90
11762;DHT22;5938;47.098;15.474;2023-04-15T16:35:27;8.80;99.90
11762;DHT22;5938;47.098;15.474;2023-04-15T16:39:33;8.70;99.90
11762;DHT22;5938;47.098;15.474;2023-04-15T16:43:39;8.70;99.90
11762;DHT22;5938;47.098;15.474;2023-04-15T16:47:42;8.60;99.90
11762;DHT22;5938;47.098;15.474;2023-04-15T16:51:46;8.40;99.90
11762;DHT22;5938;47.098;15.474;2023-04-15T16:55:49;8.40;99.90
11762;DHT22;5938;47.098;15.474;2023-04-15T16:59:55;8.40;99.90
11762;DHT22;5938;47.098;15.474;2023-04-15T17:03:59;8.30;99.90
11762;DHT22;5938;47.098;15.474;2023-04-15T17:08:03;8.10;99.90
11762;DHT22;5938;47.098;15.474;2023-04-15T17:12:07;8.10;99.90
11762;DHT22;5938;47.098;15.474;2023-04-15T17:16:13;8.00;99.90
11762;DHT22;5938;47.098;15.474;2023-04-15T17:20:17;7.90;99.90
11762;DHT22;5938;47.098;15.474;2023-04-15T17:24:21;7.90;99.90
11762;DHT22;5938;47.098;15.474;2023-04-15T17:28:24;7.80;99.90
11762;DHT22;5938;47.098;15.474;2023-04-15T17:32:29;7.80;99.90
11762;DHT22;5938;47.098;15.474;2023-04-15T17:36:36;7.70;99.90
11762;DHT22;5938;47.098;15.474;2023-04-15T17:40:40;7.70;99.90
11762;DHT22;5938;47.098;15.474;2023-04-15T17:44:44;7.60;99.90
11762;DHT22;5938;47.098;15.474;2023-04-15T17:48:52;7.50;99.90
11762;DHT22;5938;47.098;15.474;2023-04-15T17:52:58;7.60;99.90
11762;DHT22;5938;47.098;15.474;2023-04-15T17:57:08;7.50;99.90
11762;DHT22;5938;47.098;15.474;2023-04-15T18:01:15;7.50;99.90
11762;DHT22;5938;47.098;15.474;2023-04-15T18:05:32;7.40;99.90
11762;DHT22;5938;47.098;15.474;2023-04-15T18:09:38;7.30;99.90
11762;DHT22;5938;47.098;15.474;2023-04-15T18:13:42;7.20;99.90
11762;DHT22;5938;47.098;15.474;2023-04-15T18:17:49;7.20;99.90
11762;DHT22;5938;47.098;15.474;2023-04-15T18:21:55;7.10;99.90
11762;DHT22;5938;47.098;15.474;2023-04-15T18:26:05;7.10;99.90
11762;DHT22;5938;47.098;15.474;2023-04-15T18:30:12;7.10;99.90
11762;DHT22;5938;47.098;15.474;2023-04-15T18:34:18;7.10;99.90
11762;DHT22;5938;47.098;15.474;2023-04-15T18:38:24;7.00;99.90
11762;DHT22;5938;47.098;15.474;2023-04-15T18:42:32;7.00;99.90
11762;DHT22;5938;47.098;15.474;2023-04-15T18:46:42;7.00;99.90
11762;DHT22;5938;47.098;15.474;2023-04-15T18:51:01;7.00;99.90
11762;DHT22;5938;47.098;15.474;2023-04-15T18:55:14;7.00;99.90
11762;DHT22;5938;47.098;15.474;2023-04-15T18:59:20;6.90;99.90
11762;DHT22;5938;47.098;15.474;2023-04-15T19:03:32;6.80;99.90
11762;DHT22;5938;47.098;15.474;2023-04-15T19:07:39;6.70;99.90
11762;DHT22;5938;47.098;15.474;2023-04-15T19:11:46;6.70;99.90
11762;DHT22;5938;47.098;15.474;2023-04-15T19:15:51;6.70;99.90
11762;DHT22;5938;47.098;15.474;2023-04-15T19:19:57;6.80;99.90
11762;DHT22;5938;47.098;15.474;2023-04-15T19:24:11;6.80;99.90
11762;DHT22;5938;47.098;15.474;2023-04-15T19:28:43;6.70;99.90
11762;DHT22;5938;47.098;15.474;2023-04-15T19:32:54;6.60;99.90
11762;DHT22;5938;47.098;15.474;2023-04-15T19:37:01;6.50;99.90
11762;DHT22;5938;47.098;15.474;2023-04-15T19:41:09;6.50;99.90
11762;DHT22;5938;47.098;15.474;2023-04-15T19:45:29;6.60;99.90
11762;DHT22;5938;47.098;15.474;2023-04-15T19:49:38;6.60;99.90
11762;DHT22;5938;47.098;15.474;2023-04-15T19:53:48;6.70;99.90
11762;DHT22;5938;47.098;15.474;2023-04-15T19:57:56;6.50;99.90
11762;DHT22;5938;47.098;15.474;2023-04-15T20:02:04;6.50;99.90
11762;DHT22;5938;47.098;15.474;2023-04-15T20:06:13;6.40;99.90
11762;DHT22;5938;47.098;15.474;2023-04-15T20:10:21;6.30;99.90
11762;DHT22;5938;47.098;15.474;2023-04-15T20:14:26;6.20;99.90
11762;DHT22;5938;47.098;15.474;2023-04-15T20:18:31;5.90;99.90
11762;DHT22;5938;47.098;15.474;2023-04-15T20:22:35;5.70;99.90
11762;DHT22;5938;47.098;15.474;2023-04-15T20:26:39;5.40;99.90
11762;DHT22;5938;47.098;15.474;2023-04-15T20:30:43;5.20;99.90
11762;DHT22;5938;47.098;15.474;2023-04-15T20:34:48;5.00;99.90
11762;DHT22;5938;47.098;15.474;2023-04-15T20:38:53;5.00;99.90
11762;DHT22;5938;47.098;15.474;2023-04-15T20:42:58;4.80;99.90
11762;DHT22;5938;47.098;15.474;2023-04-15T20:47:02;4.70;99.90
11762;DHT22;5938;47.098;15.474;2023-04-15T20:51:07;4.60;99.90
11762;DHT22;5938;47.098;15.474;2023-04-15T20:55:11;4.40;99.90
11762;DHT22;5938;47.098;15.474;2023-04-15T20:59:16;4.40;99.90
11762;DHT22;5938;47.098;15.474;2023-04-15T21:03:19;4.20;99.90
11762;DHT22;5938;47.098;15.474;2023-04-15T21:07:25;4.20;99.90
11762;DHT22;5938;47.098;15.474;2023-04-15T21:11:28;4.10;99.90
11762;DHT22;5938;47.098;15.474;2023-04-15T21:15:52;4.00;99.90
11762;DHT22;5938;47.098;15.474;2023-04-15T21:19:56;4.00;99.90
11762;DHT22;5938;47.098;15.474;2023-04-15T21:24:02;3.90;99.90
11762;DHT22;5938;47.098;15.474;2023-04-15T21:28:07;3.90;99.90
11762;DHT22;5938;47.098;15.474;2023-04-15T21:32:11;3.70;99.90
11762;DHT22;5938;47.098;15.474;2023-04-15T21:36:15;3.60;99.90
11762;DHT22;5938;47.098;15.474;2023-04-15T21:40:19;3.70;99.90
11762;DHT22;5938;47.098;15.474;2023-04-15T21:44:23;3.70;99.90
11762;DHT22;5938;47.098;15.474;2023-04-15T21:48:26;3.60;99.90
11762;DHT22;5938;47.098;15.474;2023-04-15T21:52:29;3.70;99.90
11762;DHT22;5938;47.098;15.474;2023-04-15T21:56:35;3.60;99.90
11762;DHT22;5938;47.098;15.474;2023-04-15T22:00:38;3.60;99.90
11762;DHT22;5938;47.098;15.474;2023-04-15T22:04:42;3.50;99.90
11762;DHT22;5938;47.098;15.474;2023-04-15T22:08:45;3.60;99.90
11762;DHT22;5938;47.098;15.474;2023-04-15T22:13:10;3.60;99.90
11762;DHT22;5938;47.098;15.474;2023-04-15T22:17:13;3.40;99.90
11762;DHT22;5938;47.098;15.474;2023-04-15T22:21:17;3.40;99.90
11762;DHT22;5938;47.098;15.474;2023-04-15T22:25:20;3.50;99.90
11762;DHT22;5938;47.098;15.474;2023-04-15T22:29:25;3.50;99.90
11762;DHT22;5938;47.098;15.474;2023-04-15T22:33:28;3.50;99.90
11762;DHT22;5938;47.098;15.474;2023-04-15T22:37:31;3.40;99.90
11762;DHT22;5938;47.098;15.474;2023-04-15T22:41:35;3.30;99.90
11762;DHT22;5938;47.098;15.474;2023-04-15T22:45:39;3.20;99.90
11762;DHT22;5938;47.098;15.474;2023-04-15T22:49:43;3.10;99.90
11762;DHT22;5938;47.098;15.474;2023-04-15T22:53:46;3.00;99.90
11762;DHT22;5938;47.098;15.474;2023-04-15T22:57:50;2.90;99.90
11762;DHT22;5938;47.098;15.474;2023-04-15T23:01:55;2.90;99.90
11762;DHT22;5938;47.098;15.474;2023-04-15T23:05:58;2.80;99.90
11762;DHT22;5938;47.098;15.474;2023-04-15T23:10:02;2.80;99.90
11762;DHT22;5938;47.098;15.474;2023-04-15T23:14:05;2.70;99.90
11762;DHT22;5938;47.098;15.474;2023-04-15T23:18:11;2.70;99.90
11762;DHT22;5938;47.098;15.474;2023-04-15T23:22:14;2.50;99.90
11762;DHT22;5938;47.098;15.474;2023-04-15T23:26:17;2.60;99.90
11762;DHT22;5938;47.098;15.474;2023-04-15T23:30:21;2.60;99.90
11762;DHT22;5938;47.098;15.474;2023-04-15T23:34:25;2.50;99.90
11762;DHT22;5938;47.098;15.474;2023-04-15T23:38:29;2.60;99.90
11762;DHT22;5938;47.098;15.474;2023-04-15T23:42:32;2.50;99.90
11762;DHT22;5938;47.098;15.474;2023-04-15T23:46:35;2.50;99.90
11762;DHT22;5938;47.098;15.474;2023-04-15T23:50:40;2.50;99.90
11762;DHT22;5938;47.098;15.474;2023-04-15T23:54:43;2.50;99.90
11762;DHT22;5938;47.098;15.474;2023-04-15T23:58:46;2.50;99.90
